Time;durP1;ratioP1;P1;durP2;ratioP2;P2;SDS_P1;SDS_P2;PMS_P1;PMS_P2;Temp;Humidity;BMP_temperature;BMP_pressure;BME280_temperature;BME280_humidity;BME280_pressure;Samples;Min_cycle;Max_cycle;Signal;HPM_P1;HPM_P2
2022/06/18 00:00:58;;;;;;;13.90;5.85;;;18.20;90.40;;;;;;5010676;28;20033;-59
2022/06/18 00:03:25;;;;;;;18.40;6.90;;;18.20;90.50;;;;;;5010354;28;20025;-59
2022/06/18 00:05:55;;;;;;;9.82;5.70;;;18.20;90.40;;;;;;5010527;28;20088;-58
2022/06/18 00:08:28;;;;;;;10.50;6.03;;;18.20;90.60;;;;;;5011127;28;20520;-61
2022/06/18 00:13:39;;;;;;;11.95;5.72;;;18.20;90.60;;;;;;5014147;28;20030;-56
2022/06/18 00:13:47;;;;;;;12.02;5.68;;;18.20;90.90;;;;;;5013891;28;20026;-58
2022/06/18 00:16:19;;;;;;;14.10;5.70;;;18.10;90.80;;;;;;5014000;28;20523;-59
2022/06/18 00:18:44;;;;;;;11.25;5.60;;;18.10;90.80;;;;;;5013705;28;20033;-57
2022/06/18 00:21:18;;;;;;;13.98;6.43;;;18.10;91.10;;;;;;5013769;28;20034;-61
2022/06/18 00:23:44;;;;;;;10.70;5.60;;;18.10;90.80;;;;;;5013976;28;20030;-58
2022/06/18 00:26:10;;;;;;;13.18;5.80;;;18.10;91.40;;;;;;5013920;28;20036;-58
2022/06/18 00:28:36;;;;;;;11.32;5.75;;;18.00;91.20;;;;;;5013428;28;20389;-60
2022/06/18 00:31:03;;;;;;;11.55;5.70;;;18.00;91.20;;;;;;5013948;28;20030;-60
2022/06/18 00:33:29;;;;;;;11.25;5.50;;;18.00;91.40;;;;;;5013651;28;20029;-62
2022/06/18 00:36:00;;;;;;;11.05;6.15;;;18.00;91.50;;;;;;5013795;28;20032;-59
2022/06/18 00:38:27;;;;;;;8.95;5.45;;;18.00;91.50;;;;;;5013636;28;20033;-59
2022/06/18 00:40:54;;;;;;;11.32;5.45;;;17.90;91.40;;;;;;5013496;28;20469;-59
2022/06/18 00:43:34;;;;;;;10.52;5.78;;;17.90;91.40;;;;;;5013445;28;20413;-59
2022/06/18 00:46:12;;;;;;;9.27;6.05;;;17.90;91.50;;;;;;5012065;28;20022;-59
2022/06/18 00:49:00;;;;;;;12.48;5.43;;;17.90;91.70;;;;;;5013378;28;20042;-57
2022/06/18 00:51:50;;;;;;;16.02;6.03;;;17.80;91.50;;;;;;5001833;28;20066;-60
2022/06/18 00:54:33;;;;;;;7.90;5.72;;;17.80;91.60;;;;;;5012523;28;20116;-59
2022/06/18 00:57:10;;;;;;;9.77;5.80;;;17.80;91.60;;;;;;5012003;28;20440;-59
2022/06/18 00:59:52;;;;;;;11.07;5.57;;;17.80;91.90;;;;;;5013128;28;20125;-58
2022/06/18 01:02:39;;;;;;;10.13;5.32;;;17.70;92.00;;;;;;5013067;28;20401;-60
2022/06/18 01:05:23;;;;;;;9.38;5.75;;;17.80;92.00;;;;;;5012507;28;20065;-58
2022/06/18 01:08:03;;;;;;;11.00;5.78;;;17.70;92.00;;;;;;5011734;28;20374;-56
2022/06/18 01:10:37;;;;;;;10.02;5.40;;;17.80;92.00;;;;;;5012945;28;20049;-57
2022/06/18 01:13:07;;;;;;;12.98;5.85;;;17.80;92.20;;;;;;5012641;28;20504;-57
2022/06/18 01:15:33;;;;;;;9.90;5.90;;;17.80;92.10;;;;;;5011752;28;20048;-57
2022/06/18 01:18:00;;;;;;;13.77;6.15;;;17.80;92.20;;;;;;5012880;28;20412;-59
2022/06/18 01:20:26;;;;;;;11.27;6.00;;;17.80;91.90;;;;;;5012525;28;20477;-59
2022/06/18 01:22:55;;;;;;;12.30;5.78;;;17.80;91.90;;;;;;5012796;28;20405;-57
2022/06/18 01:25:26;;;;;;;10.27;6.00;;;17.70;92.10;;;;;;5012713;28;20068;-53
2022/06/18 01:27:54;;;;;;;10.57;5.95;;;17.70;91.90;;;;;;5012997;28;20088;-60
2022/06/18 01:30:22;;;;;;;12.70;5.88;;;17.60;92.20;;;;;;5012792;28;20057;-59
2022/06/18 01:32:51;;;;;;;9.27;5.78;;;17.60;92.20;;;;;;5010335;28;20018;-58
2022/06/18 01:35:18;;;;;;;14.20;6.40;;;17.50;92.20;;;;;;5012445;28;20029;-59
2022/06/18 01:37:44;;;;;;;12.90;6.22;;;17.40;92.50;;;;;;5012541;28;20061;-60
2022/06/18 01:40:15;;;;;;;13.77;6.35;;;17.50;92.40;;;;;;5012381;28;20017;-59
2022/06/18 01:42:45;;;;;;;13.02;6.68;;;17.40;92.80;;;;;;5012443;28;20397;-60
2022/06/18 01:45:18;;;;;;;13.13;7.07;;;17.40;92.70;;;;;;5012221;28;20481;-61
2022/06/18 01:47:53;;;;;;;16.15;7.15;;;17.30;92.60;;;;;;5012437;28;20030;-59
2022/06/18 01:50:23;;;;;;;13.38;6.65;;;17.30;92.70;;;;;;5011942;28;20042;-59
2022/06/18 01:53:12;;;;;;;12.82;7.10;;;17.30;92.70;;;;;;5012121;28;20022;-60
2022/06/18 01:55:44;;;;;;;13.20;6.65;;;17.40;92.90;;;;;;5011702;28;20045;-61
2022/06/18 01:58:15;;;;;;;13.43;7.03;;;17.40;92.90;;;;;;5012189;28;20049;-59
2022/06/18 02:00:42;;;;;;;14.25;6.22;;;17.30;92.80;;;;;;5012054;28;20061;-58
2022/06/18 02:03:08;;;;;;;14.25;6.88;;;17.30;92.90;;;;;;5012029;28;20022;-59
2022/06/18 02:05:34;;;;;;;14.60;6.50;;;17.30;92.90;;;;;;5011965;28;20029;-59
2022/06/18 02:08:00;;;;;;;12.43;6.70;;;17.30;93.30;;;;;;5012203;28;20018;-58
2022/06/18 02:10:32;;;;;;;11.70;6.63;;;17.30;93.10;;;;;;5010367;28;20534;-58
2022/06/18 02:13:01;;;;;;;17.90;6.78;;;17.30;92.90;;;;;;5011692;28;20632;-58
2022/06/18 02:15:35;;;;;;;14.95;7.13;;;17.20;93.10;;;;;;5011617;28;20434;-58
2022/06/18 02:18:05;;;;;;;12.40;6.35;;;17.20;93.30;;;;;;5012065;28;20038;-58
2022/06/18 02:20:36;;;;;;;17.02;7.05;;;17.20;93.30;;;;;;5011763;28;20473;-57
2022/06/18 02:23:02;;;;;;;19.20;7.43;;;17.20;93.50;;;;;;5011846;28;20029;-58
2022/06/18 02:25:30;;;;;;;10.10;6.60;;;17.20;93.20;;;;;;5011696;28;20022;-59
2022/06/18 02:28:00;;;;;;;12.68;7.00;;;17.20;93.60;;;;;;5011511;28;20366;-58
2022/06/18 02:30:30;;;;;;;13.07;6.85;;;17.20;93.50;;;;;;5011222;28;20033;-58
2022/06/18 02:32:59;;;;;;;;;;;17.20;93.30;;;;;;5011489;28;20400;-58
2022/06/18 02:35:28;;;;;;;15.30;6.93;;;17.20;93.40;;;;;;5011523;28;19905;-61
2022/06/18 02:37:54;;;;;;;13.85;7.30;;;17.20;93.30;;;;;;5011214;28;20083;-58
2022/06/18 02:40:26;;;;;;;10.77;6.38;;;17.20;93.40;;;;;;5011496;28;20033;-59
2022/06/18 02:42:54;;;;;;;15.50;6.85;;;17.20;93.30;;;;;;5011344;28;20131;-59
2022/06/18 02:45:22;;;;;;;11.00;6.13;;;17.20;93.40;;;;;;5011501;28;20041;-59
2022/06/18 02:47:49;;;;;;;9.32;6.32;;;17.10;93.40;;;;;;5011566;28;20017;-59
2022/06/18 02:50:18;;;;;;;14.00;6.43;;;17.10;93.40;;;;;;5011209;28;20029;-58
2022/06/18 02:52:56;;;;;;;12.75;6.57;;;17.10;93.10;;;;;;5026406;28;20026;-57
2022/06/18 02:55:35;;;;;;;12.77;6.13;;;17.20;93.40;;;;;;5011050;28;20055;-59
2022/06/18 02:58:08;;;;;;;13.15;6.47;;;17.10;93.30;;;;;;5011366;28;20473;-60
2022/06/18 03:00:37;;;;;;;11.32;6.40;;;17.10;93.40;;;;;;5011480;28;20057;-59
2022/06/18 03:03:07;;;;;;;11.20;5.88;;;17.10;93.60;;;;;;5011351;28;20465;-57
2022/06/18 03:05:33;;;;;;;11.43;6.25;;;17.00;93.10;;;;;;5011100;28;20477;-57
2022/06/18 03:07:59;;;;;;;10.35;6.38;;;17.00;93.50;;;;;;5011325;28;20030;-59
2022/06/18 03:13:09;;;;;;;12.43;6.65;;;17.00;93.70;;;;;;4972494;28;20402;-58
2022/06/18 03:15:35;;;;;;;11.23;6.28;;;16.90;93.60;;;;;;4972031;28;20512;-57
2022/06/18 03:18:02;;;;;;;12.77;6.50;;;16.80;93.80;;;;;;4972109;28;20022;-58
2022/06/18 03:21:10;;;;;;;13.40;6.82;;;16.80;93.90;;;;;;4972256;28;20102;-60
2022/06/18 03:23:36;;;;;;;12.02;6.78;;;16.80;93.90;;;;;;4951531;28;20423;-60
2022/06/18 03:26:02;;;;;;;10.93;6.93;;;16.80;94.10;;;;;;4972067;28;20023;-61
2022/06/18 03:28:29;;;;;;;13.80;7.25;;;16.80;93.90;;;;;;4971818;28;20031;-60
2022/06/18 03:30:54;;;;;;;14.10;6.82;;;16.80;93.80;;;;;;4971854;28;20035;-60
2022/06/18 03:33:20;;;;;;;12.60;6.88;;;16.80;93.80;;;;;;4971919;28;20050;-61
2022/06/18 03:35:48;;;;;;;12.07;6.95;;;16.80;94.10;;;;;;4971749;28;20026;-59
2022/06/18 03:38:15;;;;;;;12.45;6.60;;;16.80;94.30;;;;;;4972005;28;20038;-59
2022/06/18 03:40:43;;;;;;;13.20;6.72;;;16.80;94.40;;;;;;4971846;28;20026;-62
2022/06/18 03:43:09;;;;;;;13.88;7.00;;;16.70;94.50;;;;;;4971824;28;20150;-61
2022/06/18 03:45:39;;;;;;;13.48;6.45;;;16.70;94.50;;;;;;4975485;28;20442;-61
2022/06/18 03:48:06;;;;;;;13.02;6.82;;;16.70;94.60;;;;;;4975319;28;20033;-60
2022/06/18 03:50:32;;;;;;;10.68;6.75;;;16.70;94.60;;;;;;4975406;28;20725;-57
2022/06/18 03:52:58;;;;;;;13.35;7.32;;;16.80;94.80;;;;;;4975281;28;20065;-60
2022/06/18 03:55:25;;;;;;;14.27;7.38;;;16.80;94.90;;;;;;4963561;28;20085;-58
2022/06/18 03:57:51;;;;;;;11.60;7.00;;;16.80;95.00;;;;;;4975190;28;20487;-61
2022/06/18 04:00:20;;;;;;;15.90;7.85;;;16.70;94.80;;;;;;4975250;28;20031;-59
2022/06/18 04:02:46;;;;;;;13.80;6.70;;;16.70;94.80;;;;;;4975319;28;20019;-60
2022/06/18 04:05:13;;;;;;;13.20;7.30;;;16.70;94.60;;;;;;4974958;28;20434;-56
2022/06/18 04:07:40;;;;;;;13.23;7.18;;;16.70;94.70;;;;;;4975138;28;20027;-58
2022/06/18 04:10:06;;;;;;;11.65;7.05;;;16.70;94.50;;;;;;4974744;28;20035;-57
2022/06/18 04:12:32;;;;;;;13.40;7.45;;;16.70;94.80;;;;;;5005517;28;20121;-56
2022/06/18 04:14:59;;;;;;;11.63;7.32;;;16.70;94.80;;;;;;5014101;28;20116;-57
2022/06/18 04:17:25;;;;;;;15.13;7.40;;;16.70;94.90;;;;;;5013975;28;20029;-56
2022/06/18 04:19:50;;;;;;;13.38;6.80;;;16.70;95.00;;;;;;5013937;28;20033;-59
2022/06/18 04:22:16;;;;;;;16.38;7.88;;;16.70;95.30;;;;;;5014186;28;20115;-58
2022/06/18 04:24:42;;;;;;;15.80;8.02;;;16.70;95.10;;;;;;5013714;28;20392;-57
2022/06/18 04:27:08;;;;;;;12.45;7.10;;;16.70;95.20;;;;;;5013518;28;20489;-57
2022/06/18 04:29:34;;;;;;;11.90;7.25;;;16.70;94.90;;;;;;5013670;28;20038;-58
2022/06/18 04:32:00;;;;;;;16.85;8.27;;;16.80;95.20;;;;;;5013505;28;20494;-56
2022/06/18 04:34:27;;;;;;;12.45;7.10;;;16.80;95.20;;;;;;5013696;28;20116;-57
2022/06/18 04:36:53;;;;;;;13.77;7.25;;;16.80;95.20;;;;;;5013743;28;20033;-58
2022/06/18 04:39:19;;;;;;;13.60;7.65;;;16.80;95.40;;;;;;5013479;28;20014;-57
2022/06/18 04:41:45;;;;;;;12.43;7.35;;;16.80;95.20;;;;;;5012557;28;20014;-58
2022/06/18 04:44:11;;;;;;;14.20;7.20;;;16.90;95.60;;;;;;5013687;28;20034;-58
2022/06/18 04:46:37;;;;;;;11.60;7.40;;;16.90;95.00;;;;;;5013417;28;20113;-57
2022/06/18 04:49:02;;;;;;;12.18;6.95;;;16.90;94.50;;;;;;5028399;28;20030;-57
2022/06/18 04:51:28;;;;;;;11.68;7.18;;;16.80;94.60;;;;;;5013262;28;20488;-58
2022/06/18 04:53:54;;;;;;;15.65;7.85;;;16.90;95.10;;;;;;5012998;28;20056;-58
2022/06/18 04:56:20;;;;;;;14.13;7.30;;;16.90;94.90;;;;;;5013296;28;20038;-57
2022/06/18 04:58:46;;;;;;;13.60;7.20;;;17.00;94.90;;;;;;5013073;28;20037;-57
2022/06/18 05:01:17;;;;;;;13.65;7.93;;;17.00;95.00;;;;;;5013314;28;20068;-60
2022/06/18 05:03:43;;;;;;;11.93;7.43;;;17.00;94.90;;;;;;5013184;28;20030;-59
2022/06/18 05:06:09;;;;;;;14.48;7.30;;;17.00;94.80;;;;;;5013151;28;20084;-57
2022/06/18 05:08:34;;;;;;;11.10;6.95;;;17.00;94.80;;;;;;5012708;28;20115;-55
2022/06/18 05:11:00;;;;;;;14.80;7.93;;;17.10;94.70;;;;;;5012768;28;20173;-55
2022/06/18 05:13:26;;;;;;;14.80;7.70;;;17.10;94.10;;;;;;5012714;28;20033;-57
2022/06/18 05:15:54;;;;;;;13.90;7.22;;;17.20;94.50;;;;;;5006173;28;20025;-56
2022/06/18 05:18:23;;;;;;;14.35;7.88;;;17.20;95.00;;;;;;5006036;28;20104;-55
2022/06/18 05:20:52;;;;;;;15.02;7.13;;;17.30;94.60;;;;;;5012314;28;20025;-57
2022/06/18 05:23:18;;;;;;;12.73;7.10;;;17.40;94.40;;;;;;5012840;28;20125;-57
2022/06/18 05:25:44;;;;;;;13.00;6.97;;;17.40;94.70;;;;;;5011842;28;20018;-59
2022/06/18 05:28:12;;;;;;;12.07;7.50;;;17.50;94.50;;;;;;5012302;28;20022;-56
2022/06/18 05:30:38;;;;;;;12.40;7.50;;;17.50;94.10;;;;;;5011102;28;20038;-58
2022/06/18 05:33:05;;;;;;;10.20;6.88;;;17.60;94.20;;;;;;5012015;28;20026;-58
2022/06/18 05:35:32;;;;;;;14.75;6.90;;;17.80;94.20;;;;;;5011312;28;20032;-59
2022/06/18 05:37:58;;;;;;;13.13;7.50;;;17.90;93.00;;;;;;5012277;28;20026;-59
2022/06/18 05:40:24;;;;;;;13.43;7.85;;;18.10;93.10;;;;;;5011883;28;20036;-57
2022/06/18 05:42:50;;;;;;;11.40;6.35;;;18.40;94.00;;;;;;5011681;28;20033;-58
2022/06/18 05:45:15;;;;;;;11.57;6.72;;;18.70;93.40;;;;;;5012027;28;20030;-59
2022/06/18 05:47:41;;;;;;;12.48;6.72;;;18.90;92.60;;;;;;5011362;28;20120;-57
2022/06/18 05:50:11;;;;;;;10.73;6.57;;;19.20;91.80;;;;;;5007116;28;20088;-60
2022/06/18 05:52:36;;;;;;;11.45;6.85;;;19.50;90.50;;;;;;5006611;28;20022;-59
2022/06/18 05:55:04;;;;;;;11.68;7.13;;;19.80;91.50;;;;;;5010181;28;20048;-60
2022/06/18 05:57:30;;;;;;;10.60;5.50;;;20.10;90.60;;;;;;5008088;28;20033;-57
2022/06/18 05:59:55;;;;;;;10.52;5.97;;;20.50;90.20;;;;;;5010525;28;20109;-58
2022/06/18 06:02:22;;;;;;;11.32;6.07;;;20.90;86.60;;;;;;5011307;28;20029;-58
2022/06/18 06:04:49;;;;;;;11.68;6.03;;;21.30;87.20;;;;;;5011131;28;20129;-56
2022/06/18 06:07:21;;;;;;;11.38;6.43;;;21.70;84.50;;;;;;5010649;28;20025;-55
2022/06/18 06:12:35;;;;;;;14.98;6.95;;;22.40;84.70;;;;;;5010233;28;20076;-58
2022/06/18 06:15:01;;;;;;;12.57;6.55;;;22.60;79.50;;;;;;5011617;28;20159;-56
2022/06/18 06:17:28;;;;;;;9.43;6.40;;;22.50;81.50;;;;;;5011687;28;20022;-54
2022/06/18 06:20:01;;;;;;;11.80;6.50;;;22.30;82.90;;;;;;5010605;28;20434;-57
2022/06/18 06:22:27;;;;;;;13.98;7.05;;;22.20;84.90;;;;;;5011816;28;20029;-57
2022/06/18 06:24:53;;;;;;;14.70;6.50;;;22.10;84.10;;;;;;5011760;28;20022;-54
2022/06/18 06:27:18;;;;;;;14.38;6.35;;;22.00;85.20;;;;;;5011482;28;20124;-54
2022/06/18 06:29:44;;;;;;;13.75;6.85;;;22.00;84.70;;;;;;5011133;28;20105;-51
2022/06/18 06:32:10;;;;;;;11.63;6.22;;;22.10;86.30;;;;;;5010825;28;20084;-56
2022/06/18 06:34:35;;;;;;;12.80;6.03;;;22.40;87.70;;;;;;5007470;28;20026;-55
2022/06/18 06:37:01;;;;;;;11.98;7.10;;;22.80;83.40;;;;;;5009432;28;20022;-53
2022/06/18 06:39:28;;;;;;;14.18;6.65;;;23.20;82.50;;;;;;5009673;28;20018;-53
2022/06/18 06:41:53;;;;;;;15.20;6.47;;;23.50;80.60;;;;;;5010353;28;20026;-55
2022/06/18 06:44:19;;;;;;;11.38;6.38;;;23.80;78.60;;;;;;5011187;28;20358;-55
2022/06/18 06:46:45;;;;;;;10.98;5.78;;;24.10;79.10;;;;;;5011153;28;20113;-58
2022/06/18 06:49:10;;;;;;;11.23;5.93;;;24.60;77.10;;;;;;5011301;28;20034;-57
2022/06/18 06:51:38;;;;;;;13.77;6.38;;;24.80;75.80;;;;;;5009507;28;20030;-53
2022/06/18 06:54:04;;;;;;;16.25;6.30;;;24.60;77.00;;;;;;5009254;28;20481;-54
2022/06/18 06:59:14;;;;;;;16.00;6.28;;;24.90;77.80;;;;;;5008057;28;20049;-54
2022/06/18 07:01:40;;;;;;;14.23;5.97;;;24.80;73.00;;;;;;5008154;28;20033;-58
2022/06/18 07:04:07;;;;;;;13.35;6.20;;;24.90;73.50;;;;;;5008325;28;20068;-57
2022/06/18 07:06:35;;;;;;;16.67;6.45;;;24.80;74.00;;;;;;5008929;28;20047;-59
2022/06/18 07:09:05;;;;;;;14.57;5.80;;;24.90;73.20;;;;;;5009436;28;20025;-55
2022/06/18 07:11:30;;;;;;;17.10;5.85;;;24.90;75.20;;;;;;5010517;28;20136;-56
2022/06/18 07:13:56;;;;;;;14.38;5.85;;;24.80;75.70;;;;;;5011039;28;20456;-56
2022/06/18 07:16:22;;;;;;;15.02;6.03;;;24.80;76.30;;;;;;5011054;28;20034;-53
2022/06/18 07:18:49;;;;;;;10.75;5.50;;;24.80;78.30;;;;;;5029399;28;20080;-53
2022/06/18 07:21:16;;;;;;;16.48;5.95;;;24.80;77.30;;;;;;5015183;28;20058;-57
2022/06/18 07:23:42;;;;;;;17.00;5.63;;;25.00;78.30;;;;;;5014940;28;20076;-57
2022/06/18 07:26:10;;;;;;;11.48;5.82;;;25.20;77.10;;;;;;5015029;28;20420;-56
2022/06/18 07:28:36;;;;;;;18.70;6.03;;;25.50;76.10;;;;;;5014857;28;20077;-58
2022/06/18 07:31:04;;;;;;;13.27;5.53;;;25.90;75.80;;;;;;5014815;28;20025;-56
2022/06/18 07:33:33;;;;;;;15.48;5.82;;;26.30;73.20;;;;;;5014883;28;20026;-55
2022/06/18 07:35:59;;;;;;;18.17;6.43;;;26.80;71.90;;;;;;5014558;28;20025;-54
2022/06/18 07:38:25;;;;;;;13.68;5.45;;;27.00;71.70;;;;;;5014826;28;20033;-52
2022/06/18 07:40:54;;;;;;;19.23;6.15;;;27.30;73.50;;;;;;5013299;28;20111;-55
2022/06/18 07:43:26;;;;;;;12.18;5.35;;;27.60;68.20;;;;;;5014703;28;20044;-55
2022/06/18 07:45:52;;;;;;;12.18;5.50;;;27.70;69.10;;;;;;5014599;28;20041;-56
2022/06/18 07:48:17;;;;;;;13.80;5.45;;;27.90;68.80;;;;;;5014656;28;20014;-55
2022/06/18 07:50:46;;;;;;;16.00;5.10;;;28.10;70.00;;;;;;5014779;28;20046;-54
2022/06/18 07:53:16;;;;;;;13.95;5.07;;;28.20;67.50;;;;;;5014438;28;20041;-57
2022/06/18 07:55:42;;;;;;;18.58;6.03;;;28.30;67.30;;;;;;5014749;28;20572;-52
2022/06/18 07:58:07;;;;;;;14.05;5.63;;;28.20;66.00;;;;;;5014198;28;20026;-56
2022/06/18 08:00:33;;;;;;;15.15;5.43;;;28.20;65.00;;;;;;5014394;28;20053;-58
2022/06/18 08:02:59;;;;;;;15.57;5.80;;;28.30;66.30;;;;;;5014291;28;20080;-50
2022/06/18 08:05:27;;;;;;;14.88;5.65;;;28.40;66.70;;;;;;5014117;28;20022;-53
2022/06/18 08:07:53;;;;;;;15.82;5.60;;;28.40;66.70;;;;;;5014508;28;20105;-54
2022/06/18 08:10:19;;;;;;;13.27;5.70;;;28.60;65.30;;;;;;5012743;28;20482;-54
2022/06/18 08:12:46;;;;;;;15.65;6.07;;;28.80;66.50;;;;;;5013920;28;20038;-54
2022/06/18 08:15:12;;;;;;;14.23;5.65;;;28.90;66.20;;;;;;5014036;28;20042;-56
2022/06/18 08:17:38;;;;;;;12.88;5.68;;;28.70;64.00;;;;;;5014598;28;20073;-56
2022/06/18 08:20:06;;;;;;;15.38;5.38;;;28.60;65.10;;;;;;5014096;28;20057;-52
2022/06/18 08:22:33;;;;;;;16.57;6.10;;;28.60;66.00;;;;;;5013756;28;20026;-55
2022/06/18 08:25:00;;;;;;;13.60;5.50;;;28.80;64.60;;;;;;5013879;28;20497;-55
2022/06/18 08:27:26;;;;;;;20.70;5.95;;;29.00;65.90;;;;;;5013992;28;20139;-57
2022/06/18 08:29:51;;;;;;;12.23;5.68;;;29.20;66.10;;;;;;5013005;28;20038;-54
2022/06/18 08:32:17;;;;;;;13.55;5.60;;;29.40;62.30;;;;;;5013727;28;20029;-58
2022/06/18 08:34:43;;;;;;;13.85;5.70;;;29.60;61.50;;;;;;5013735;28;20170;-56
2022/06/18 08:37:09;;;;;;;15.98;5.63;;;29.70;59.10;;;;;;5013721;28;20389;-55
2022/06/18 08:39:37;;;;;;;15.60;5.90;;;29.90;63.40;;;;;;5013396;28;20022;-58
2022/06/18 08:42:11;;;;;;;15.43;5.63;;;30.40;61.50;;;;;;5013753;28;20028;-54
2022/06/18 08:44:46;;;;;;;12.05;5.60;;;30.70;59.00;;;;;;5013484;28;20084;-55
2022/06/18 08:47:31;;;;;;;15.35;5.82;;;31.00;58.60;;;;;;5013448;28;20028;-57
2022/06/18 08:50:29;;;;;;;18.83;5.90;;;30.90;60.50;;;;;;5013278;28;20041;-56
2022/06/18 08:53:05;;;;;;;13.93;6.05;;;30.90;60.60;;;;;;4992772;28;20042;-58
2022/06/18 08:56:02;;;;;;;12.32;5.50;;;30.40;57.80;;;;;;5000672;28;20053;-57
2022/06/18 08:58:40;;;;;;;15.23;6.10;;;30.10;60.70;;;;;;5013211;28;20369;-54
2022/06/18 09:01:29;;;;;;;12.27;5.97;;;29.90;63.80;;;;;;5013245;28;20025;-52
2022/06/18 09:04:04;;;;;;;16.60;5.80;;;29.90;62.30;;;;;;5013239;28;20030;-53
2022/06/18 09:06:51;;;;;;;17.80;6.28;;;30.40;62.00;;;;;;5013179;28;20477;-57
2022/06/18 09:09:29;;;;;;;17.50;6.10;;;31.00;60.10;;;;;;5013118;28;20072;-48
2022/06/18 09:12:00;;;;;;;21.23;6.50;;;31.40;59.20;;;;;;5012897;28;20057;-52
2022/06/18 09:14:47;;;;;;;13.15;5.90;;;31.70;57.00;;;;;;5012977;28;20022;-51
2022/06/18 09:17:17;;;;;;;14.57;6.22;;;31.80;55.20;;;;;;5013003;28;20029;-58
2022/06/18 09:19:46;;;;;;;14.45;5.68;;;31.70;56.10;;;;;;5012963;28;20481;-55
2022/06/18 09:22:18;;;;;;;16.52;6.05;;;32.00;59.40;;;;;;5012818;28;20121;-55
2022/06/18 09:24:47;;;;;;;13.98;5.80;;;32.50;58.80;;;;;;5012747;28;20133;-56
2022/06/18 09:27:18;;;;;;;18.45;5.90;;;32.70;56.40;;;;;;5012706;28;20084;-48
2022/06/18 09:30:02;;;;;;;12.73;5.63;;;32.90;54.00;;;;;;5011393;28;20045;-59
2022/06/18 09:32:44;;;;;;;19.27;6.22;;;32.90;53.90;;;;;;5012533;28;20018;-59
2022/06/18 09:35:37;;;;;;;14.18;5.10;;;33.10;52.40;;;;;;5012612;28;20026;-56
2022/06/18 09:38:14;;;;;;;19.40;6.07;;;33.30;54.50;;;;;;5009649;28;20045;-56
2022/06/18 09:41:04;;;;;;;12.13;5.07;;;33.70;54.30;;;;;;5011717;28;20028;-57
2022/06/18 09:43:45;;;;;;;13.30;5.22;;;33.90;50.60;;;;;;5011994;28;20041;-55
2022/06/18 09:46:33;;;;;;;16.85;5.53;;;33.70;50.40;;;;;;5012304;28;20451;-54
2022/06/18 09:48:59;;;;;;;18.30;5.68;;;33.70;48.60;;;;;;5012354;28;20034;-57
2022/06/18 09:51:35;;;;;;;16.77;5.55;;;33.80;50.20;;;;;;5012310;28;20508;-60
2022/06/18 09:54:05;;;;;;;17.65;5.65;;;33.40;48.20;;;;;;5012249;28;20045;-60
2022/06/18 09:56:37;;;;;;;15.20;5.75;;;32.70;49.30;;;;;;5012430;28;20072;-59
2022/06/18 09:59:17;;;;;;;18.25;5.40;;;32.20;51.60;;;;;;5012157;28;20389;-56
2022/06/18 10:01:46;;;;;;;12.88;5.07;;;32.00;51.80;;;;;;5011760;28;20026;-59
2022/06/18 10:07:04;;;;;;;14.63;5.28;;;32.10;58.40;;;;;;5012266;28;20076;-57
2022/06/18 10:09:56;;;;;;;17.55;5.97;;;32.50;53.10;;;;;;5010932;28;20457;-59
2022/06/18 10:12:26;;;;;;;18.75;6.15;;;33.00;51.40;;;;;;4997533;28;20120;-57
2022/06/18 10:15:01;;;;;;;14.73;5.00;;;33.30;54.70;;;;;;5027370;28;20026;-58
2022/06/18 10:17:53;;;;;;;12.90;5.38;;;33.90;52.50;;;;;;5011853;28;20030;-56
2022/06/18 10:20:22;;;;;;;18.17;5.30;;;34.20;50.30;;;;;;5011621;28;20029;-53
2022/06/18 10:23:03;;;;;;;16.20;5.50;;;34.50;50.80;;;;;;5011942;28;20021;-54
2022/06/18 10:25:36;;;;;;;12.95;5.28;;;34.70;51.60;;;;;;5011649;28;20033;-54
2022/06/18 10:28:26;;;;;;;11.82;5.20;;;34.80;50.40;;;;;;5011775;28;20022;-52
2022/06/18 10:31:04;;;;;;;15.63;5.78;;;34.70;49.40;;;;;;5011774;28;20053;-56
2022/06/18 10:34:12;;;;;;;19.15;5.32;;;34.80;47.70;;;;;;5011563;28;20393;-51
2022/06/18 10:36:50;;;;;;;17.17;5.28;;;34.70;48.50;;;;;;5011609;28;20504;-52
2022/06/18 10:39:23;;;;;;;13.77;5.40;;;34.60;46.80;;;;;;5011519;28;20503;-47
2022/06/18 10:42:19;;;;;;;12.88;5.00;;;34.70;49.20;;;;;;5011496;28;20512;-52
2022/06/18 10:45:06;;;;;;;14.95;5.43;;;34.50;48.20;;;;;;5011326;28;20038;-48
2022/06/18 10:47:35;;;;;;;16.77;6.10;;;34.20;49.70;;;;;;5011614;28;20017;-47
2022/06/18 10:50:10;;;;;;;16.35;5.55;;;34.40;53.00;;;;;;5011163;28;20477;-50
2022/06/18 10:52:36;;;;;;;19.88;5.78;;;34.30;48.60;;;;;;5011150;28;20477;-47
2022/06/18 10:55:17;;;;;;;32.13;5.93;;;34.20;48.60;;;;;;5011150;28;20053;-47
2022/06/18 10:57:43;;;;;;;12.00;5.30;;;34.50;47.30;;;;;;5009868;28;20095;-51
2022/06/18 11:00:24;;;;;;;16.33;5.90;;;34.40;50.90;;;;;;5010781;28;20056;-49
2022/06/18 11:02:55;;;;;;;16.40;6.10;;;34.10;47.70;;;;;;5005745;28;20033;-54
2022/06/18 11:05:34;;;;;;;18.00;6.55;;;34.20;50.10;;;;;;5008041;28;20037;-58
2022/06/18 11:08:03;;;;;;;15.13;5.75;;;33.40;46.50;;;;;;5006699;28;20062;-51
2022/06/18 11:10:36;;;;;;;11.80;5.72;;;32.90;51.10;;;;;;5007845;28;20128;-54
2022/06/18 11:13:06;;;;;;;15.63;6.47;;;32.40;52.70;;;;;;5006000;28;20041;-55
2022/06/18 11:15:35;;;;;;;18.55;6.07;;;32.00;52.70;;;;;;4995225;28;20023;-53
2022/06/18 11:18:20;;;;;;;16.27;5.10;;;31.70;55.30;;;;;;5000757;28;20030;-53
2022/06/18 11:21:06;;;;;;;13.25;5.07;;;31.10;55.60;;;;;;4993064;28;20036;-53
2022/06/18 11:23:35;;;;;;;16.42;5.97;;;30.70;54.70;;;;;;4996334;28;20022;-54
2022/06/18 11:26:01;;;;;;;20.13;5.60;;;30.20;57.80;;;;;;5006251;28;20422;-51
2022/06/18 11:28:36;;;;;;;10.73;4.80;;;30.00;59.60;;;;;;5008158;28;20030;-48
2022/06/18 11:31:04;;;;;;;13.25;5.07;;;30.20;61.20;;;;;;5009153;28;20034;-54
2022/06/18 11:33:34;;;;;;;12.32;4.40;;;30.70;56.80;;;;;;4999180;28;20022;-55
2022/06/18 11:36:18;;;;;;;15.20;4.93;;;31.00;59.40;;;;;;4991149;28;20035;-51
2022/06/18 11:38:56;;;;;;;8.77;3.78;;;31.50;58.70;;;;;;5006289;28;20033;-53
2022/06/18 11:41:38;;;;;;;14.00;4.03;;;31.60;57.00;;;;;;5010602;28;20073;-58
2022/06/18 11:44:14;;;;;;;11.55;3.63;;;31.20;56.20;;;;;;5009452;28;20022;-53
2022/06/18 11:46:49;;;;;;;7.60;3.28;;;30.80;58.30;;;;;;5008775;28;20030;-56
2022/06/18 11:49:29;;;;;;;11.05;3.83;;;30.60;60.00;;;;;;5009394;28;20422;-49
2022/06/18 11:52:10;;;;;;;14.35;3.85;;;30.70;60.30;;;;;;5009740;28;20022;-57
2022/06/18 11:55:05;;;;;;;10.77;3.85;;;30.40;57.10;;;;;;5002050;28;20100;-58
2022/06/18 11:57:41;;;;;;;10.52;3.80;;;30.20;59.40;;;;;;4993316;28;20493;-54
2022/06/18 12:00:29;;;;;;;10.68;4.22;;;29.90;58.20;;;;;;5007274;28;20037;-57
2022/06/18 12:02:55;;;;;;;14.15;3.88;;;29.10;58.90;;;;;;5001042;28;20050;-58
2022/06/18 12:05:35;;;;;;;15.27;4.28;;;28.70;61.70;;;;;;4997076;28;20033;-51
2022/06/18 12:08:03;;;;;;;12.43;4.10;;;28.30;62.20;;;;;;5011883;28;20029;-57
2022/06/18 12:10:40;;;;;;;10.95;4.45;;;28.00;62.50;;;;;;4998343;28;20551;-54
2022/06/18 12:13:20;;;;;;;13.40;3.70;;;27.60;61.80;;;;;;5009967;28;20470;-55
2022/06/18 12:16:03;;;;;;;14.60;4.13;;;27.60;64.30;;;;;;5013027;28;20036;-52
2022/06/18 12:18:35;;;;;;;13.93;4.20;;;27.90;64.10;;;;;;5013098;28;20026;-54
2022/06/18 12:21:19;;;;;;;14.07;4.28;;;28.50;62.70;;;;;;5013861;28;20041;-53
2022/06/18 12:23:59;;;;;;;9.07;4.00;;;28.80;59.90;;;;;;5009491;28;20048;-47
2022/06/18 12:26:44;;;;;;;12.52;3.50;;;29.20;61.80;;;;;;5013809;28;20524;-53
2022/06/18 12:29:13;;;;;;;10.85;3.80;;;29.50;59.70;;;;;;5012972;28;20056;-50
2022/06/18 12:31:59;;;;;;;12.15;3.67;;;29.60;56.30;;;;;;5010958;28;20417;-54
2022/06/18 12:34:51;;;;;;;12.38;3.85;;;29.70;56.80;;;;;;5007835;28;20038;-49
2022/06/18 12:37:56;;;;;;;12.18;3.90;;;29.70;55.00;;;;;;5009355;28;20683;-51
2022/06/18 12:40:22;;;;;;;11.57;3.85;;;29.30;56.10;;;;;;4992786;28;20038;-50
2022/06/18 12:42:55;;;;;;;8.70;3.20;;;28.90;57.30;;;;;;5009207;28;20108;-49
2022/06/18 12:45:46;;;;;;;11.90;3.85;;;28.60;58.50;;;;;;5010544;28;20121;-52
2022/06/18 12:48:27;;;;;;;9.27;3.55;;;28.30;60.30;;;;;;5008951;28;20034;-46
2022/06/18 12:50:56;;;;;;;8.57;3.40;;;27.90;59.90;;;;;;5009517;28;20371;-53
2022/06/18 12:53:45;;;;;;;12.02;3.65;;;27.60;60.50;;;;;;5011641;28;20030;-54
2022/06/18 12:56:17;;;;;;;;;;;27.30;62.00;;;;;;5009395;28;20530;-54
2022/06/18 12:59:09;;;;;;;12.10;3.38;;;27.30;62.30;;;;;;5011716;28;19964;-51
2022/06/18 13:02:15;;;;;;;11.73;4.00;;;27.40;61.70;;;;;;4989442;28;20069;-50
2022/06/18 13:05:10;;;;;;;11.25;2.78;;;27.40;65.40;;;;;;5005230;28;20037;-53
2022/06/18 13:08:02;;;;;;;10.65;3.08;;;27.40;63.20;;;;;;5008243;28;20492;-56
2022/06/18 13:10:36;;;;;;;10.48;3.05;;;27.30;63.00;;;;;;5010016;28;20100;-47
2022/06/18 13:13:20;;;;;;;14.00;3.20;;;27.30;65.00;;;;;;5025986;28;20484;-46